Historyczne dane pomiarowe

Dodano dane terminowe – wersja testowa.

Dane z okresu 1951-2019

Wersja bazy: 1.34 [2019-03-16, lista zmian], aktualizacja planowana na 2019-04-15

Dane meteo z obszaru Polski uzyskane na podstawie danych udostępnionych przez Instytut Meteorologii i Gospodarki Wodnej – Państwowy Instytut Badawczy.

 

Wybierz Datę:    

       

TemperaturaWilgotnośćWiatrCiśnienieOpadyŚniegCzas trwania zjawisk
 Stacja t tx tn tng RH VA  wxwx mslp ppp RRR   cm mm wxwxwxwxwxwxwx
1961-08-14 15.1 18.9 12.2- 76.3- 6.7 3.3---- 1.2------------
1961-08-13 14.4 19.4 9.5- 77.3- 4.7 4.0---- 0.0------------
1961-08-12 15.8 20.2 14.3- 83.8- 5.7 2.3---- 0.0------------
1961-08-11 16.8 19.0 15.2- 92.5- 8.0 0.3---- 0.6------------
1961-08-10 17.8 22.8 12.6- 87.3- 6.7 1.7---- 6.9------------
1961-08-09 18.2 23.9 14.1- 74.8- 5.0 2.3---- 0.0------------
1961-08-08 17.3 19.6 8.5- 76.0- 4.0 2.3---- 0.7------------
1961-08-07 14.4 20.8 13.1- 93.3- 5.3 2.3---- 8.7------------
1961-08-06 19.4 24.9 16.7- 74.3- 5.0 3.3---- 1.4------------
1961-08-05 19.3 22.8 14.0- 80.5- 6.7 3.3---- 5.4------------
1961-08-04 14.7 16.0 10.7- 86.5- 7.7 6.0---- 1.4------------
1961-08-03 13.7 18.9 11.9- 88.8- 4.7 2.0---- 17.6------------
1961-08-02 15.3 19.5 12.4- 88.8- 7.7 2.0---- 7.2------------
1961-08-01 15.4 19.8 12.6- 80.8- 5.0 4.3---- 0.0------------
1961-07-31 14.4 17.0 13.2- 83.5- 7.7 6.0---- 12.3------------
1961-07-30 15.2 18.0 10.0- 78.8- 6.0 4.0---- 0.0------------
1961-07-29 13.8 18.2 11.4- 81.0- 4.3 3.7---- 0.0------------
1961-07-28 13.2 16.3 12.4- 89.3- 7.7 2.0---- 2.4------------
1961-07-27 16.9 19.8 15.4- 80.0- 7.7 5.7---- 3.4------------
1961-07-26 17.7 23.5 14.8- 82.5- 7.7 5.7---- 1.4------------
1961-07-25 15.3 19.3 13.0- 83.0- 7.7 3.0---- 0.1------------
1961-07-24 14.1 16.7 12.7- 78.0- 7.0 4.3---- 0.0------------
1961-07-23 14.6 17.6 13.3- 80.8- 7.0 4.3---- 0.0------------
1961-07-22 14.8 17.5 13.6- 81.5- 7.7 5.0---- 0.0------------
1961-07-21 14.8 18.1 14.0- 91.5- 6.3 3.0---- 14.3------------
1961-07-20 15.3 18.4 13.7- 85.3- 7.3 4.3---- 4.9------------
1961-07-19 15.9 20.8 11.9- 76.0- 3.3 4.0---- 0.0------------
1961-07-18 15.3 19.0 11.8- 82.8- 6.0 4.3---- 6.4------------
1961-07-17 14.9 18.0 11.3- 83.3- 5.0 3.3---- 0.1------------
1961-07-16 15.8 22.5 12.9- 80.0- 5.3 1.3---- 4.3------------
1961-07-15 18.2 22.8 13.9- 64.5- 3.7 4.7---- 0.0------------
1961-07-14 14.6 20.0 12.3- 82.0- 7.7 6.7---- 0.2------------
1961-07-13 19.2 24.7 16.3- 84.0- 7.0 6.0---- 3.0------------
1961-07-12 19.5 24.7 13.5- 76.8- 4.3 1.3---- 0.0------------
1961-07-11 16.2 19.4 10.7- 83.5- 6.3 4.0---- 6.8------------
1961-07-10 13.6 17.1 10.9- 82.8- 6.7 4.0---- 1.7------------
1961-07-09 14.5 18.6 13.5- 90.3- 7.7 4.0---- 6.4------------
1961-07-08 17.1 21.2 14.2- 72.5- 7.3 5.0---- 9.3------------
1961-07-07 14.7 18.1 10.0- 69.0- 5.3 3.3---- 0.0------------
1961-07-06 13.0 17.9 9.6- 81.8- 6.7 5.3---- 8.7------------
1961-07-05 13.0 17.1 11.3- 72.3- 6.0 7.3---- 3.1------------
1961-07-04 15.6 19.0 13.9- 73.3- 6.0 5.7---- 0.0------------
1961-07-03 22.0 32.0 16.5- 65.3- 1.3 3.3---- 0.0------------
1961-07-02 24.0 30.8 11.8- 61.3- 0.0 1.0---- 0.0------------
1961-07-01 21.2 27.5 8.5- 62.8- 0.0 0.3---- 0.0------------
1961-06-30 19.5 24.8 11.2- 68.0- 1.3 1.7---- 0.0------------
1961-06-29 17.6 23.5 11.6- 71.5- 3.7 3.3---- 0.0------------
1961-06-28 15.5 19.1 11.3- 72.3- 4.7 5.3---- 0.1------------
1961-06-27 19.2 24.5 16.9- 83.3- 5.7 6.3---- 1.8------------
1961-06-26 21.7 27.7 14.3- 64.3- 1.3 3.7---- 1.9------------
1961-06-25 21.5 28.1 14.7- 61.0- 1.7 4.0---- 0.0------------
1961-06-24 18.9 24.3 13.3- 64.8- 4.7 4.7---- 0.0------------
1961-06-23 17.9 22.8 12.7- 63.8- 6.3 5.0---- 0.0------------
1961-06-22 17.3 23.4 6.5- 66.0- 2.3 5.0---- 0.0------------
1961-06-21 14.4 19.1 9.4- 69.5- 4.7 2.7---- 0.0------------
1961-06-20 14.4 20.4 8.6- 65.5- 1.7 3.7---- 0.0------------
1961-06-19 15.5 19.7 11.5- 60.0- 2.7 4.7---- 0.0------------
1961-06-18 18.9 25.1 16.3- 77.0- 4.3 7.0---- 1.2------------
1961-06-17 18.7 22.7 11.7- 69.3- 5.0 4.0---- 0.0------------
1961-06-16 14.3 20.4 11.3- 74.5- 4.7 4.0---- 0.0------------
279.1 ms

 

Źródłem pochodzenia danych jest Instytut Meteorologii i Gospodarki Wodnej – Państwowy Instytut Badawczy. Dane Instytutu Meteorologii i Gospodarki Wodnej – Państwowego Instytutu Badawczego zostały przetworzone.

Dane źródłowe można odnaleźć na stronie https://dane.imgw.pl